Newfoundland, New Jersey
Current Conditions -  °F | °C
As of 3:53 PM on Monday 24 Nov 2014 (Local Time) from KCDW Reporting Station
Broken Clouds Broken Clouds  
Wind Chill: 70°   Ceiling: 3900
Heat Index: 70°   Visibility: 10mi
Dew Point: 55°   Wind: 7mph
Humidity: 59%   Direction: NA
Pressure: 29.58"   Gusts: NA
Location:  41.05°N, 74.43°W
Report Text: KCDW 242053Z VRB06KT 10SM BKN039 21/13 A2958 RMK AO2 SLP021 T02110128 53000
Loading
Personal Weather Stations






























Interactive Weather Map New forecast layout! Learn more

10-Day Weather Forecast

Advertisements
Track Severe Weather on mobile